createdAt,value
2017-12-03T00:00:26.532Z,2.90
2017-12-03T00:02:54.082Z,2.80
2017-12-03T00:05:21.527Z,2.80
2017-12-03T00:07:48.986Z,2.80
2017-12-03T00:10:16.430Z,2.80
2017-12-03T00:12:43.990Z,2.70
2017-12-03T00:15:11.459Z,2.70
2017-12-03T00:17:38.961Z,2.70
2017-12-03T00:20:06.464Z,2.70
2017-12-03T00:22:33.993Z,2.70
2017-12-03T00:25:01.430Z,2.70
2017-12-03T00:27:28.915Z,2.70
2017-12-03T00:29:56.480Z,2.80
2017-12-03T00:32:23.924Z,2.80
2017-12-03T00:34:51.363Z,2.60
2017-12-03T00:37:19.570Z,2.70
2017-12-03T00:39:46.998Z,2.60
2017-12-03T00:42:14.506Z,2.70
2017-12-03T00:44:41.962Z,2.70
2017-12-03T00:47:09.406Z,2.70
2017-12-03T00:49:36.866Z,2.90
2017-12-03T00:52:04.356Z,2.80
2017-12-03T00:54:31.794Z,2.90
2017-12-03T00:56:59.247Z,2.80
2017-12-03T00:59:26.707Z,2.90
2017-12-03T01:01:54.151Z,2.80
2017-12-03T01:04:21.610Z,2.80
2017-12-03T01:06:49.183Z,2.80
2017-12-03T01:09:16.618Z,2.70
2017-12-03T01:11:44.086Z,2.80
2017-12-03T01:14:11.537Z,2.80
2017-12-03T01:16:38.982Z,2.80
2017-12-03T01:19:06.538Z,2.90
2017-12-03T01:21:34.040Z,2.90
2017-12-03T01:24:01.654Z,2.70
2017-12-03T01:26:29.103Z,2.80
2017-12-03T01:28:56.555Z,2.90
2017-12-03T01:31:24.034Z,2.80
2017-12-03T01:33:51.473Z,2.80
2017-12-03T01:36:19.699Z,2.90
2017-12-03T01:38:47.226Z,2.90
2017-12-03T01:41:14.663Z,2.90
2017-12-03T01:43:42.242Z,2.80
2017-12-03T01:46:09.682Z,2.80
2017-12-03T01:48:37.124Z,2.70
2017-12-03T01:51:04.566Z,2.80
2017-12-03T01:53:32.023Z,2.80
2017-12-03T01:55:59.469Z,2.70
2017-12-03T01:58:26.894Z,2.70
2017-12-03T02:00:54.343Z,2.70
2017-12-03T02:03:21.783Z,2.70
2017-12-03T02:05:49.234Z,2.80
2017-12-03T02:08:16.673Z,2.70
2017-12-03T02:10:44.112Z,2.70
2017-12-03T02:13:12.330Z,2.70
2017-12-03T02:15:39.794Z,2.60
2017-12-03T02:18:07.313Z,2.70
2017-12-03T02:20:34.819Z,2.70
2017-12-03T02:23:02.263Z,2.60
2017-12-03T02:25:29.710Z,2.50
2017-12-03T02:27:57.191Z,2.60
2017-12-03T02:30:24.643Z,2.70
2017-12-03T02:32:52.091Z,2.70
2017-12-03T02:35:19.650Z,2.80
2017-12-03T02:37:47.098Z,2.80
2017-12-03T02:40:14.570Z,2.90
2017-12-03T02:42:42.030Z,2.90
2017-12-03T02:45:09.588Z,2.90
2017-12-03T02:47:37.047Z,2.80
2017-12-03T02:50:04.586Z,2.80
2017-12-03T02:52:32.032Z,2.90
2017-12-03T02:54:59.611Z,3.00
2017-12-03T02:57:27.070Z,3.00
2017-12-03T02:59:54.506Z,2.90
2017-12-03T03:02:21.961Z,2.90
2017-12-03T03:04:49.422Z,2.90
2017-12-03T03:07:16.893Z,3.00
2017-12-03T03:09:44.340Z,2.90
2017-12-03T03:12:11.911Z,2.80
2017-12-03T03:14:39.367Z,2.80
2017-12-03T03:17:06.810Z,2.80
2017-12-03T03:19:34.262Z,2.90
2017-12-03T03:22:01.719Z,2.90
2017-12-03T03:24:29.194Z,2.90
2017-12-03T03:26:56.634Z,2.90
2017-12-03T03:29:24.182Z,2.90
2017-12-03T03:31:51.589Z,2.90
2017-12-03T03:34:19.799Z,2.70
2017-12-03T03:36:47.260Z,2.60
2017-12-03T03:39:14.749Z,2.70
2017-12-03T03:41:42.203Z,2.60
2017-12-03T03:44:09.655Z,2.60
2017-12-03T03:46:37.105Z,2.60
2017-12-03T03:49:04.547Z,2.50
2017-12-03T03:51:32.029Z,2.50
2017-12-03T03:53:59.460Z,2.50
2017-12-03T03:56:26.892Z,2.60
2017-12-03T03:58:54.326Z,2.60
2017-12-03T04:01:22.564Z,2.60
2017-12-03T04:03:50.023Z,2.50
2017-12-03T04:06:17.485Z,2.60
2017-12-03T04:08:44.939Z,2.70
2017-12-03T04:11:12.362Z,2.60
2017-12-03T04:13:39.870Z,2.60
2017-12-03T04:16:07.299Z,2.70
2017-12-03T04:18:34.723Z,2.80
2017-12-03T04:21:02.162Z,2.80
2017-12-03T04:23:30.402Z,2.70
2017-12-03T04:25:57.845Z,2.60
2017-12-03T04:28:25.316Z,2.70
2017-12-03T04:30:52.772Z,2.60
2017-12-03T04:33:20.318Z,2.60
2017-12-03T04:35:47.774Z,2.50
2017-12-03T04:38:15.248Z,2.50
2017-12-03T04:40:43.507Z,2.40
2017-12-03T04:43:10.963Z,2.30
2017-12-03T04:45:38.422Z,2.40
2017-12-03T04:48:05.882Z,2.40
2017-12-03T04:50:33.526Z,2.40
2017-12-03T04:53:00.991Z,2.50
2017-12-03T04:55:28.429Z,2.40
2017-12-03T04:57:55.862Z,2.40
2017-12-03T05:00:23.323Z,2.50
2017-12-03T05:02:50.765Z,2.50
2017-12-03T05:05:18.203Z,2.50
2017-12-03T05:07:46.418Z,2.40
2017-12-03T05:10:13.870Z,2.40
2017-12-03T05:12:41.328Z,2.50
2017-12-03T05:15:08.806Z,2.50
2017-12-03T05:17:36.259Z,2.50
2017-12-03T05:20:03.699Z,2.50
2017-12-03T05:22:31.177Z,2.60
2017-12-03T05:24:58.621Z,2.60
2017-12-03T05:27:26.071Z,2.40
2017-12-03T05:29:53.526Z,2.40
2017-12-03T05:32:20.966Z,2.40
2017-12-03T05:34:48.478Z,2.40
2017-12-03T05:37:15.922Z,2.40
2017-12-03T05:39:43.366Z,2.50
2017-12-03T05:42:10.802Z,2.50
2017-12-03T05:44:38.252Z,2.60
2017-12-03T05:47:05.706Z,2.60
2017-12-03T05:49:33.153Z,2.60
2017-12-03T05:52:00.610Z,2.70
2017-12-03T05:54:28.039Z,2.60
2017-12-03T05:56:56.260Z,2.60
2017-12-03T05:59:23.850Z,2.50
2017-12-03T06:01:51.296Z,2.60
2017-12-03T06:04:18.738Z,2.60
2017-12-03T06:06:46.210Z,2.50
2017-12-03T06:09:13.658Z,2.60
2017-12-03T06:11:41.103Z,2.60
2017-12-03T06:14:08.553Z,2.50
2017-12-03T06:16:35.986Z,2.60
2017-12-03T06:19:03.426Z,2.60
2017-12-03T06:21:30.863Z,2.60
2017-12-03T06:23:58.402Z,2.70
2017-12-03T06:26:25.922Z,2.80
2017-12-03T06:28:53.425Z,2.80
2017-12-03T06:31:20.870Z,2.90
2017-12-03T06:33:48.315Z,2.90
2017-12-03T06:36:15.742Z,2.90
2017-12-03T06:38:43.243Z,2.90
2017-12-03T06:41:10.700Z,2.90
2017-12-03T06:43:38.159Z,2.90
2017-12-03T06:46:05.611Z,2.90
2017-12-03T06:48:33.078Z,2.90
2017-12-03T06:51:00.523Z,2.90
2017-12-03T06:53:27.977Z,2.80
2017-12-03T06:55:55.469Z,2.60
2017-12-03T06:58:22.998Z,2.70
2017-12-03T07:00:50.452Z,2.70
2017-12-03T07:03:17.891Z,2.70
2017-12-03T07:05:45.331Z,2.80
2017-12-03T07:08:12.774Z,2.70
2017-12-03T07:10:40.209Z,2.70
2017-12-03T07:13:08.442Z,2.70
2017-12-03T07:15:35.876Z,2.70
2017-12-03T07:18:03.318Z,2.70
2017-12-03T07:20:30.763Z,2.70
2017-12-03T07:22:58.989Z,2.70
2017-12-03T07:25:26.427Z,2.70
2017-12-03T07:27:53.868Z,2.70
2017-12-03T07:30:21.318Z,2.90
2017-12-03T07:32:48.769Z,2.90
2017-12-03T07:35:16.225Z,3.00
2017-12-03T07:37:43.674Z,3.00
2017-12-03T07:40:11.870Z,3.10
2017-12-03T07:42:39.316Z,3.10
2017-12-03T07:45:06.755Z,3.00
2017-12-03T07:47:34.973Z,3.10
2017-12-03T07:50:02.402Z,3.10
2017-12-03T07:52:29.846Z,3.20
2017-12-03T07:54:57.298Z,3.20
2017-12-03T07:57:25.522Z,3.10
2017-12-03T07:59:52.959Z,3.10
2017-12-03T08:02:20.398Z,3.20
2017-12-03T08:04:47.841Z,3.10
2017-12-03T08:07:16.079Z,3.20
2017-12-03T08:09:43.522Z,3.10
2017-12-03T08:12:10.963Z,3.10
2017-12-03T08:14:38.421Z,3.10
2017-12-03T08:17:05.883Z,3.20
2017-12-03T08:19:33.343Z,3.20
2017-12-03T08:22:00.787Z,3.20
2017-12-03T08:24:28.241Z,3.20
2017-12-03T08:26:55.718Z,3.10
2017-12-03T08:29:23.176Z,3.20
2017-12-03T08:31:50.618Z,3.20
2017-12-03T08:34:18.069Z,3.20
2017-12-03T08:36:45.550Z,3.20
2017-12-03T08:39:12.985Z,3.20
2017-12-03T08:41:40.442Z,3.20
2017-12-03T08:44:07.936Z,3.20
2017-12-03T08:46:35.374Z,3.20
2017-12-03T08:49:02.834Z,3.20
2017-12-03T08:51:30.285Z,3.20
2017-12-03T08:53:57.735Z,3.20
2017-12-03T08:56:25.192Z,3.20
2017-12-03T08:58:52.624Z,3.20
2017-12-03T09:01:20.213Z,3.20
2017-12-03T09:03:47.646Z,3.20
2017-12-03T09:06:15.103Z,3.20
2017-12-03T09:08:42.546Z,3.20
2017-12-03T09:11:10.039Z,3.20
2017-12-03T09:13:37.482Z,3.20
2017-12-03T09:16:04.932Z,3.20
2017-12-03T09:18:32.382Z,3.30
2017-12-03T09:20:59.855Z,3.30
2017-12-03T09:23:27.305Z,3.30
2017-12-03T09:25:54.750Z,3.30
2017-12-03T09:28:22.207Z,3.30
2017-12-03T09:30:49.642Z,3.30
2017-12-03T09:33:17.138Z,3.30
2017-12-03T09:35:44.607Z,3.30
2017-12-03T09:38:12.051Z,3.30
2017-12-03T09:40:39.483Z,3.30
2017-12-03T09:43:06.928Z,3.30
2017-12-03T09:45:34.386Z,3.20
2017-12-03T09:48:01.881Z,3.20
2017-12-03T09:50:29.325Z,3.20
2017-12-03T09:52:56.806Z,3.30
2017-12-03T09:55:24.239Z,3.40
2017-12-03T09:57:51.668Z,3.40
2017-12-03T10:00:19.176Z,3.30
2017-12-03T10:02:46.612Z,3.40
2017-12-03T10:05:14.092Z,3.40
2017-12-03T10:07:41.544Z,3.40
2017-12-03T10:10:09.536Z,3.40
2017-12-03T10:12:37.876Z,3.50
2017-12-03T10:15:05.321Z,3.40
2017-12-03T10:17:32.934Z,3.40
2017-12-03T10:20:01.203Z,3.50
2017-12-03T10:22:28.747Z,3.50
2017-12-03T10:24:56.290Z,3.50
2017-12-03T10:27:23.764Z,3.60
2017-12-03T10:29:51.307Z,3.60
2017-12-03T10:32:18.764Z,3.60
2017-12-03T10:34:46.324Z,3.70
2017-12-03T10:37:13.763Z,3.70
2017-12-03T10:39:41.343Z,3.80
2017-12-03T10:42:08.861Z,3.90
2017-12-03T10:44:36.306Z,3.90
2017-12-03T10:47:03.732Z,3.90
2017-12-03T10:49:31.179Z,3.90
2017-12-03T10:51:58.635Z,3.90
2017-12-03T10:54:26.137Z,3.90
2017-12-03T10:56:53.563Z,3.90
2017-12-03T10:59:21.078Z,4.00
2017-12-03T11:01:48.527Z,4.00
2017-12-03T11:04:15.999Z,4.00
2017-12-03T11:06:43.442Z,4.00
2017-12-03T11:09:10.886Z,4.10
2017-12-03T11:11:38.340Z,4.10
2017-12-03T11:14:05.778Z,4.10
2017-12-03T11:16:33.239Z,4.00
2017-12-03T11:19:00.730Z,4.10
2017-12-03T11:21:28.295Z,4.10
2017-12-03T11:23:55.746Z,4.10
2017-12-03T11:26:23.209Z,4.20
2017-12-03T11:28:50.754Z,4.20
2017-12-03T11:31:18.223Z,4.20
2017-12-03T11:33:45.674Z,4.20
2017-12-03T11:36:13.197Z,4.30
2017-12-03T11:38:40.695Z,4.30
2017-12-03T11:41:08.164Z,4.40
2017-12-03T11:43:35.706Z,4.30
2017-12-03T11:46:03.150Z,4.40
2017-12-03T11:48:30.602Z,4.40
2017-12-03T11:50:58.091Z,4.50
2017-12-03T11:53:25.631Z,4.50
2017-12-03T11:55:53.080Z,4.60
2017-12-03T11:58:20.555Z,4.60
2017-12-03T12:00:48.094Z,4.70
2017-12-03T12:03:15.548Z,4.70
2017-12-03T12:05:43.011Z,4.70
2017-12-03T12:08:10.466Z,4.70
2017-12-03T12:10:37.902Z,4.70
2017-12-03T12:13:05.582Z,4.70
2017-12-03T12:15:33.039Z,4.80
2017-12-03T12:18:00.472Z,4.80
2017-12-03T12:20:27.974Z,4.80
2017-12-03T12:22:55.441Z,4.80
2017-12-03T12:25:22.938Z,4.90
2017-12-03T12:27:50.367Z,4.90
2017-12-03T12:30:18.607Z,5.00
2017-12-03T12:32:46.056Z,4.90
2017-12-03T12:35:13.555Z,5.00
2017-12-03T12:37:41.071Z,5.00
2017-12-03T12:40:08.530Z,5.00
2017-12-03T12:42:35.977Z,5.10
2017-12-03T12:45:03.423Z,5.10
2017-12-03T12:47:30.853Z,5.20
2017-12-03T12:49:58.346Z,5.20
2017-12-03T12:52:25.781Z,5.30
2017-12-03T12:54:53.214Z,5.40
2017-12-03T12:57:20.722Z,5.40
2017-12-03T12:59:48.167Z,5.40
2017-12-03T13:02:15.595Z,5.50
2017-12-03T13:04:43.030Z,5.50
2017-12-03T13:07:11.275Z,5.50
2017-12-03T13:09:38.711Z,5.50
2017-12-03T13:12:06.169Z,5.60
2017-12-03T13:14:33.614Z,5.60
2017-12-03T13:17:01.046Z,5.70
2017-12-03T13:19:28.542Z,5.70
2017-12-03T13:21:55.999Z,5.70
2017-12-03T13:24:23.431Z,5.70
2017-12-03T13:26:50.902Z,5.80
2017-12-03T13:29:18.372Z,5.80
2017-12-03T13:31:45.806Z,5.70
2017-12-03T13:34:13.290Z,5.70
2017-12-03T13:36:40.756Z,5.70
2017-12-03T13:39:08.215Z,5.80
2017-12-03T13:41:35.660Z,5.80
2017-12-03T13:44:03.100Z,5.80
2017-12-03T13:46:30.554Z,5.80
2017-12-03T13:48:58.011Z,5.90
2017-12-03T13:51:25.551Z,5.90
2017-12-03T13:53:53.013Z,5.90
2017-12-03T13:56:20.508Z,6.00
2017-12-03T13:58:47.942Z,6.00
2017-12-03T14:01:15.386Z,6.10
2017-12-03T14:03:42.843Z,6.20
2017-12-03T14:06:10.295Z,6.10
2017-12-03T14:08:37.754Z,6.20
2017-12-03T14:11:05.221Z,6.20
2017-12-03T14:13:32.659Z,6.30
2017-12-03T14:16:00.144Z,6.30
2017-12-03T14:18:27.545Z,6.30
2017-12-03T14:20:54.990Z,6.40
2017-12-03T14:23:22.453Z,6.40
2017-12-03T14:25:50.655Z,6.30
2017-12-03T14:28:18.097Z,6.30
2017-12-03T14:30:45.586Z,6.30
2017-12-03T14:33:13.128Z,6.30
2017-12-03T14:35:40.570Z,6.30
2017-12-03T14:38:08.025Z,6.20
2017-12-03T14:40:35.519Z,6.30
2017-12-03T14:43:02.951Z,6.30
2017-12-03T14:45:30.409Z,6.30
2017-12-03T14:47:57.866Z,6.30
2017-12-03T14:50:25.347Z,6.30
2017-12-03T14:52:52.791Z,6.30
2017-12-03T14:55:20.266Z,6.40
2017-12-03T14:57:47.712Z,6.40
2017-12-03T15:00:15.175Z,6.40
2017-12-03T15:02:42.608Z,6.40
2017-12-03T15:05:10.067Z,6.30
2017-12-03T15:07:37.530Z,6.20
2017-12-03T15:10:05.062Z,6.20
2017-12-03T15:12:32.512Z,6.20
2017-12-03T15:14:59.952Z,6.20
2017-12-03T15:17:28.179Z,6.20
2017-12-03T15:19:55.635Z,6.20
2017-12-03T15:22:23.098Z,6.30
2017-12-03T15:24:50.538Z,6.30
2017-12-03T15:27:18.002Z,6.30
2017-12-03T15:29:45.452Z,6.30
2017-12-03T15:32:12.926Z,6.30
2017-12-03T15:34:40.379Z,6.20
2017-12-03T15:37:07.820Z,6.30
2017-12-03T15:39:35.263Z,6.20
2017-12-03T15:42:03.666Z,6.30
2017-12-03T15:44:31.121Z,6.30
2017-12-03T15:46:58.571Z,6.30
2017-12-03T15:49:26.011Z,6.30
2017-12-03T15:51:53.455Z,6.30
2017-12-03T15:54:20.891Z,6.30
2017-12-03T15:56:49.106Z,6.40
2017-12-03T15:59:16.539Z,6.30
2017-12-03T16:01:43.977Z,6.40
2017-12-03T16:04:12.285Z,6.30
2017-12-03T16:06:39.777Z,6.30
2017-12-03T16:09:07.211Z,6.30
2017-12-03T16:11:34.654Z,6.30
2017-12-03T16:14:02.135Z,6.40
2017-12-03T16:16:29.584Z,6.40
2017-12-03T16:18:57.062Z,6.40
2017-12-03T16:21:24.507Z,6.40
2017-12-03T16:23:52.037Z,6.40
2017-12-03T16:26:19.454Z,6.40
2017-12-03T16:28:47.654Z,6.40
2017-12-03T16:31:15.156Z,6.40
2017-12-03T16:33:42.590Z,6.50
2017-12-03T16:36:10.038Z,6.40
2017-12-03T16:38:37.494Z,6.40
2017-12-03T16:41:04.927Z,6.40
2017-12-03T16:43:32.454Z,6.40
2017-12-03T16:45:59.997Z,6.40
2017-12-03T16:48:27.518Z,6.50
2017-12-03T16:50:55.039Z,6.50
2017-12-03T16:53:23.244Z,6.50
2017-12-03T16:55:50.686Z,6.40
2017-12-03T16:58:18.298Z,6.50
2017-12-03T17:00:45.781Z,6.50
2017-12-03T17:03:13.307Z,6.50
2017-12-03T17:05:40.755Z,6.50
2017-12-03T17:08:08.192Z,6.50
2017-12-03T17:10:35.671Z,6.50
2017-12-03T17:13:03.118Z,6.50
2017-12-03T17:15:30.562Z,6.40
2017-12-03T17:17:58.011Z,6.30
2017-12-03T17:20:26.216Z,6.30
2017-12-03T17:22:53.654Z,6.30
2017-12-03T17:25:21.094Z,6.30
2017-12-03T17:27:49.336Z,6.20
2017-12-03T17:30:16.898Z,6.20
2017-12-03T17:32:44.334Z,6.20
2017-12-03T17:35:11.767Z,6.20
2017-12-03T17:37:39.351Z,6.20
2017-12-03T17:40:06.782Z,6.20
2017-12-03T17:42:34.226Z,6.20
2017-12-03T17:45:01.678Z,6.20
2017-12-03T17:47:29.178Z,6.20
2017-12-03T17:49:56.606Z,6.10
2017-12-03T17:52:24.068Z,6.20
2017-12-03T17:54:51.499Z,6.10
2017-12-03T17:57:18.987Z,6.10
2017-12-03T17:59:46.440Z,6.20
2017-12-03T18:02:13.879Z,6.10
2017-12-03T18:04:41.322Z,6.10
2017-12-03T18:07:09.539Z,6.10
2017-12-03T18:09:36.990Z,6.10
2017-12-03T18:12:05.098Z,6.10
2017-12-03T18:14:32.635Z,6.10
2017-12-03T18:17:00.075Z,6.20
2017-12-03T18:19:27.520Z,6.20
2017-12-03T18:21:55.185Z,6.20
2017-12-03T18:24:22.651Z,6.20
2017-12-03T18:26:50.090Z,6.20
2017-12-03T18:29:17.576Z,6.20
2017-12-03T18:31:45.026Z,6.30
2017-12-03T18:34:12.459Z,6.30
2017-12-03T18:36:39.898Z,6.30
2017-12-03T18:39:07.347Z,6.30
2017-12-03T18:41:35.558Z,6.20
2017-12-03T18:44:03.013Z,6.20
2017-12-03T18:46:30.446Z,6.30
2017-12-03T18:48:57.889Z,6.20
2017-12-03T18:51:26.076Z,6.30
2017-12-03T18:53:53.511Z,6.30
2017-12-03T18:56:21.706Z,6.30
2017-12-03T18:58:49.150Z,6.30
2017-12-03T19:01:17.346Z,6.20
2017-12-03T19:03:44.792Z,6.20
2017-12-03T19:06:12.226Z,6.20
2017-12-03T19:08:40.438Z,6.10
2017-12-03T19:11:07.879Z,6.10
2017-12-03T19:13:35.315Z,6.10
2017-12-03T19:16:03.568Z,6.00
2017-12-03T19:18:31.004Z,6.00
2017-12-03T19:20:58.484Z,6.00
2017-12-03T19:23:26.014Z,6.00
2017-12-03T19:25:53.496Z,6.00
2017-12-03T19:28:20.942Z,6.00
2017-12-03T19:30:48.381Z,6.00
2017-12-03T19:33:16.058Z,6.00
2017-12-03T19:35:43.516Z,6.10
2017-12-03T19:38:10.958Z,6.10
2017-12-03T19:40:38.974Z,6.10
2017-12-03T19:43:06.427Z,6.10
2017-12-03T19:45:33.862Z,6.10
2017-12-03T19:48:01.311Z,6.10
2017-12-03T19:50:28.746Z,6.10
2017-12-03T19:52:56.182Z,6.10
2017-12-03T19:55:23.631Z,6.10
2017-12-03T19:57:51.847Z,6.20
2017-12-03T20:00:19.303Z,6.10
2017-12-03T20:02:46.775Z,6.20
2017-12-03T20:05:14.220Z,6.20
2017-12-03T20:07:41.677Z,6.20
2017-12-03T20:10:09.134Z,6.20
2017-12-03T20:12:36.572Z,6.20
2017-12-03T20:15:04.029Z,6.20
2017-12-03T20:17:31.506Z,6.20
2017-12-03T20:19:59.079Z,6.20
2017-12-03T20:22:26.523Z,6.20
2017-12-03T20:24:53.983Z,6.10
2017-12-03T20:27:21.427Z,6.10
2017-12-03T20:29:48.878Z,6.10
2017-12-03T20:32:16.354Z,6.10
2017-12-03T20:37:21.969Z,6.10
2017-12-03T20:39:49.410Z,6.10
2017-12-03T20:42:17.637Z,6.10
2017-12-03T20:44:45.075Z,6.10
2017-12-03T20:47:12.520Z,6.10
2017-12-03T20:49:39.960Z,6.10
2017-12-03T20:52:07.412Z,6.10
2017-12-03T20:54:34.923Z,6.10
2017-12-03T20:57:02.483Z,6.10
2017-12-03T20:59:29.939Z,6.10
2017-12-03T21:01:57.462Z,6.10
2017-12-03T21:04:25.060Z,6.10
2017-12-03T21:06:52.518Z,6.10
2017-12-03T21:09:19.976Z,6.20
2017-12-03T21:11:47.433Z,6.20
2017-12-03T21:14:14.868Z,6.20
2017-12-03T21:16:42.316Z,6.20
2017-12-03T21:19:09.754Z,6.20
2017-12-03T21:21:37.250Z,6.20
2017-12-03T21:24:04.731Z,6.20
2017-12-03T21:26:32.162Z,6.20
2017-12-03T21:28:59.618Z,6.30
2017-12-03T21:31:27.079Z,6.30
2017-12-03T21:33:54.526Z,6.30
2017-12-03T21:36:21.970Z,6.30
2017-12-03T21:38:49.439Z,6.20
2017-12-03T21:41:16.889Z,6.20
2017-12-03T21:43:44.327Z,6.20
2017-12-03T21:46:12.019Z,6.20
2017-12-03T21:48:39.463Z,6.10
2017-12-03T21:51:06.901Z,6.10
2017-12-03T21:53:34.390Z,6.10
2017-12-03T21:56:01.824Z,6.10
2017-12-03T21:58:29.250Z,6.10
2017-12-03T22:00:56.751Z,6.10
2017-12-03T22:03:24.278Z,6.00
2017-12-03T22:05:51.715Z,6.00
2017-12-03T22:08:19.227Z,6.00
2017-12-03T22:10:46.670Z,6.10
2017-12-03T22:13:14.130Z,6.10
2017-12-03T22:15:41.577Z,6.10
2017-12-03T22:18:09.054Z,6.20
2017-12-03T22:20:36.498Z,6.20
2017-12-03T22:23:03.931Z,6.20
2017-12-03T22:25:31.380Z,6.20
2017-12-03T22:27:58.831Z,6.20
2017-12-03T22:30:26.250Z,6.10
2017-12-03T22:32:55.209Z,6.00
2017-12-03T22:35:22.658Z,6.00
2017-12-03T22:37:50.088Z,6.00
2017-12-03T22:40:18.304Z,6.00
2017-12-03T22:42:45.759Z,6.00
2017-12-03T22:45:13.330Z,6.00
2017-12-03T22:47:40.775Z,6.10
2017-12-03T22:50:08.254Z,6.00
2017-12-03T22:52:35.814Z,6.00
2017-12-03T22:55:03.234Z,6.00
2017-12-03T22:57:30.659Z,6.00
2017-12-03T22:59:58.128Z,6.00
2017-12-03T23:02:25.562Z,6.00
2017-12-03T23:04:53.782Z,6.00
2017-12-03T23:07:21.219Z,5.90
2017-12-03T23:09:48.663Z,6.00
2017-12-03T23:12:16.171Z,6.00
2017-12-03T23:14:43.610Z,6.00
2017-12-03T23:17:11.066Z,6.00
2017-12-03T23:19:38.631Z,6.00
2017-12-03T23:22:06.083Z,6.00
2017-12-03T23:24:33.646Z,6.00
2017-12-03T23:27:01.102Z,6.00
2017-12-03T23:29:28.541Z,5.90
2017-12-03T23:31:55.982Z,5.90
2017-12-03T23:34:23.426Z,5.90
2017-12-03T23:36:50.873Z,5.80
2017-12-03T23:39:18.406Z,5.80
2017-12-03T23:41:45.852Z,5.80
2017-12-03T23:44:13.411Z,5.80
2017-12-03T23:46:40.872Z,5.80
2017-12-03T23:49:08.309Z,5.80
2017-12-03T23:51:35.726Z,5.80
2017-12-03T23:54:03.175Z,5.80
2017-12-03T23:56:31.370Z,5.80
2017-12-03T23:58:58.870Z,5.80
